FIN2GL EFHK-LJLJ
Flight info
| Callsign | FIN2GL |
|---|---|
| Flight time | 2h 15m |
| Altitude | 34000 |
| Route | KOIVU Y123 LARTI DCT ORTAX DCT BERIL DCT UBORU/N0464F330 DCT ORZIK DCT BOKSU/N0463F340 DCT ASBIM DCT BAVOK DCT LEDVA DCT VAMET DCT RADLY DCT OFROZ |
| Aircraft | A321/M-SDE3FGHIRWY/LB1 |
Departure
| Time | 2026-04-26 04:04 |
|---|---|
| Airport | Helsinki Vantaa Airport (EFHK) |
Arrival
| Time | 2026-04-26 06:19 |
|---|---|
| Airport | Ljubljana Jože Pučnik Airport (LJLJ) |
| Time | Latitude | Longitude | Altitude | Speed | Heading |
|---|---|---|---|---|---|
| 2026-04-26 03:06 | 60.31781 | 24.96264 | 167 ft | 0 kts | 137° |
| 2026-04-26 03:48 | 60.31782 | 24.96263 | 166 ft | 2 kts | 137° |
| 2026-04-26 03:48 | 60.31800 | 24.96226 | 166 ft | 4 kts | 134° |
| 2026-04-26 03:48 | 60.31819 | 24.96192 | 166 ft | 3 kts | 152° |
| 2026-04-26 03:49 | 60.31833 | 24.96177 | 166 ft | 4 kts | 215° |
| 2026-04-26 03:49 | 60.31848 | 24.96215 | 166 ft | 3 kts | 242° |
| 2026-04-26 03:49 | 60.31853 | 24.96263 | 166 ft | 4 kts | 271° |
| 2026-04-26 03:49 | 60.31853 | 24.96277 | 166 ft | 0 kts | 267° |
| 2026-04-26 03:53 | 60.31853 | 24.96276 | 166 ft | 1 kts | 267° |
| 2026-04-26 03:53 | 60.31853 | 24.96236 | 166 ft | 6 kts | 269° |
| 2026-04-26 03:53 | 60.31876 | 24.96118 | 167 ft | 12 kts | 312° |
| 2026-04-26 03:53 | 60.31930 | 24.95991 | 169 ft | 9 kts | 274° |
| 2026-04-26 03:54 | 60.31909 | 24.95916 | 170 ft | 5 kts | 227° |
| 2026-04-26 03:54 | 60.31881 | 24.95853 | 169 ft | 7 kts | 227° |
| 2026-04-26 03:54 | 60.31840 | 24.95762 | 169 ft | 10 kts | 227° |
| 2026-04-26 03:54 | 60.31786 | 24.95645 | 170 ft | 13 kts | 227° |
| 2026-04-26 03:55 | 60.31720 | 24.95500 | 171 ft | 15 kts | 227° |
| 2026-04-26 03:55 | 60.31635 | 24.95312 | 170 ft | 20 kts | 227° |
| 2026-04-26 03:55 | 60.31538 | 24.95100 | 170 ft | 21 kts | 227° |
| 2026-04-26 03:55 | 60.31437 | 24.94877 | 167 ft | 23 kts | 227° |
| 2026-04-26 03:56 | 60.31327 | 24.94632 | 161 ft | 23 kts | 227° |
| 2026-04-26 03:56 | 60.31216 | 24.94388 | 159 ft | 22 kts | 227° |
| 2026-04-26 03:56 | 60.31114 | 24.94164 | 157 ft | 22 kts | 227° |
| 2026-04-26 03:56 | 60.31016 | 24.93952 | 159 ft | 19 kts | 224° |
| 2026-04-26 03:57 | 60.30901 | 24.93905 | 160 ft | 17 kts | 165° |
| 2026-04-26 03:57 | 60.30795 | 24.93946 | 161 ft | 13 kts | 185° |
| 2026-04-26 03:57 | 60.30726 | 24.93836 | 159 ft | 7 kts | 228° |
| 2026-04-26 03:57 | 60.30735 | 24.93749 | 158 ft | 7 kts | 317° |
| 2026-04-26 03:58 | 60.30773 | 24.93680 | 157 ft | 6 kts | 317° |
| 2026-04-26 03:58 | 60.30774 | 24.93678 | 157 ft | 0 kts | 317° |
| 2026-04-26 04:01 | 60.30775 | 24.93676 | 157 ft | 1 kts | 317° |
| 2026-04-26 04:01 | 60.30798 | 24.93634 | 157 ft | 9 kts | 317° |
| 2026-04-26 04:01 | 60.30849 | 24.93600 | 158 ft | 8 kts | 16° |
| 2026-04-26 04:02 | 60.30904 | 24.93703 | 159 ft | 14 kts | 46° |
| 2026-04-26 04:02 | 60.30987 | 24.93725 | 160 ft | 12 kts | 325° |
| 2026-04-26 04:02 | 60.31058 | 24.93620 | 159 ft | 14 kts | 340° |
| 2026-04-26 04:02 | 60.31147 | 24.93680 | 158 ft | 14 kts | 41° |
| 2026-04-26 04:03 | 60.31216 | 24.93828 | 159 ft | 15 kts | 47° |
| 2026-04-26 04:03 | 60.31341 | 24.94099 | 161 ft | 55 kts | 46° |
| 2026-04-26 04:03 | 60.31767 | 24.95035 | 174 ft | 123 kts | 47° |
| 2026-04-26 04:03 | 60.32466 | 24.96605 | 240 ft | 172 kts | 46° |
| 2026-04-26 04:04 | 60.33255 | 24.98463 | 964 ft | 175 kts | 43° |
| 2026-04-26 04:04 | 60.34032 | 25.00261 | 2004 ft | 164 kts | 38° |
| 2026-04-26 04:04 | 60.34759 | 25.01914 | 2934 ft | 152 kts | 37° |
| 2026-04-26 04:04 | 60.35478 | 25.03482 | 3430 ft | 155 kts | 37° |
| 2026-04-26 04:05 | 60.36235 | 25.05083 | 3865 ft | 160 kts | 37° |
| 2026-04-26 04:05 | 60.36999 | 25.06733 | 4385 ft | 162 kts | 38° |
| 2026-04-26 04:05 | 60.37789 | 25.08468 | 4747 ft | 175 kts | 38° |
| 2026-04-26 04:05 | 60.38659 | 25.10305 | 5078 ft | 187 kts | 39° |
| 2026-04-26 04:06 | 60.39315 | 25.12789 | 5352 ft | 221 kts | 69° |
| 2026-04-26 04:06 | 60.39129 | 25.16081 | 5756 ft | 254 kts | 104° |
| 2026-04-26 04:06 | 60.38364 | 25.19323 | 6321 ft | 263 kts | 107° |
| 2026-04-26 04:06 | 60.37544 | 25.22773 | 6699 ft | 279 kts | 108° |
| 2026-04-26 04:07 | 60.36697 | 25.26322 | 7370 ft | 283 kts | 109° |
| 2026-04-26 04:07 | 60.35821 | 25.29928 | 8063 ft | 287 kts | 110° |
| 2026-04-26 04:07 | 60.34703 | 25.33356 | 8735 ft | 299 kts | 130° |
| 2026-04-26 04:07 | 60.33061 | 25.35895 | 9464 ft | 305 kts | 150° |
| 2026-04-26 04:08 | 60.31067 | 25.37347 | 10153 ft | 307 kts | 169° |
| 2026-04-26 04:08 | 60.28941 | 25.37630 | 10869 ft | 305 kts | 182° |
| 2026-04-26 04:08 | 60.26811 | 25.37474 | 11579 ft | 306 kts | 186° |
| 2026-04-26 04:08 | 60.24708 | 25.36727 | 12125 ft | 311 kts | 199° |
| 2026-04-26 04:09 | 60.22685 | 25.35076 | 12596 ft | 317 kts | 212° |
| 2026-04-26 04:09 | 60.20852 | 25.32601 | 13147 ft | 319 kts | 224° |
| 2026-04-26 04:09 | 60.19204 | 25.29522 | 13473 ft | 332 kts | 227° |
| 2026-04-26 04:09 | 60.17473 | 25.26263 | 13596 ft | 350 kts | 226° |
| 2026-04-26 04:10 | 60.15634 | 25.22867 | 13732 ft | 368 kts | 225° |
| 2026-04-26 04:10 | 60.13695 | 25.19329 | 13858 ft | 385 kts | 225° |
| 2026-04-26 04:10 | 60.11672 | 25.15653 | 14001 ft | 400 kts | 225° |
| 2026-04-26 04:10 | 60.09584 | 25.11866 | 14429 ft | 407 kts | 224° |
| 2026-04-26 04:11 | 60.07481 | 25.08044 | 15003 ft | 410 kts | 224° |
| 2026-04-26 04:11 | 60.05364 | 25.04190 | 15594 ft | 413 kts | 224° |
| 2026-04-26 04:11 | 60.03229 | 25.00312 | 16159 ft | 416 kts | 224° |
| 2026-04-26 04:11 | 60.01078 | 24.96420 | 16735 ft | 418 kts | 223° |
| 2026-04-26 04:12 | 59.98917 | 24.92510 | 17285 ft | 420 kts | 223° |
| 2026-04-26 04:12 | 59.96747 | 24.88587 | 17851 ft | 422 kts | 223° |
| 2026-04-26 04:12 | 59.94562 | 24.84643 | 18319 ft | 425 kts | 223° |
| 2026-04-26 04:12 | 59.92362 | 24.80683 | 18778 ft | 427 kts | 224° |
| 2026-04-26 04:13 | 59.90151 | 24.76710 | 19224 ft | 430 kts | 224° |
| 2026-04-26 04:13 | 59.87923 | 24.72716 | 19679 ft | 432 kts | 223° |
| 2026-04-26 04:13 | 59.85508 | 24.69099 | 20104 ft | 437 kts | 214° |
| 2026-04-26 04:13 | 59.82805 | 24.66274 | 20530 ft | 442 kts | 205° |
| 2026-04-26 04:14 | 59.79870 | 24.64333 | 20939 ft | 447 kts | 195° |
| 2026-04-26 04:14 | 59.76827 | 24.62915 | 21328 ft | 451 kts | 195° |
| 2026-04-26 04:14 | 59.73765 | 24.61491 | 21722 ft | 454 kts | 195° |
| 2026-04-26 04:14 | 59.70679 | 24.60048 | 22091 ft | 457 kts | 195° |
| 2026-04-26 04:15 | 59.67578 | 24.58591 | 22455 ft | 460 kts | 195° |
| 2026-04-26 04:15 | 59.64442 | 24.57240 | 22817 ft | 463 kts | 193° |
| 2026-04-26 04:15 | 59.61258 | 24.56093 | 23157 ft | 467 kts | 192° |
| 2026-04-26 04:15 | 59.58041 | 24.55093 | 23446 ft | 469 kts | 191° |
| 2026-04-26 04:16 | 59.54800 | 24.54160 | 23741 ft | 472 kts | 191° |
| 2026-04-26 04:16 | 59.51548 | 24.53226 | 24035 ft | 474 kts | 191° |
| 2026-04-26 04:16 | 59.48276 | 24.52256 | 24312 ft | 477 kts | 191° |
| 2026-04-26 04:16 | 59.45033 | 24.51258 | 24627 ft | 478 kts | 192° |
| 2026-04-26 04:17 | 59.41743 | 24.50210 | 24963 ft | 479 kts | 192° |
| 2026-04-26 04:17 | 59.38458 | 24.49141 | 25393 ft | 478 kts | 192° |
| 2026-04-26 04:17 | 59.35180 | 24.48068 | 25844 ft | 477 kts | 192° |
| 2026-04-26 04:17 | 59.31900 | 24.47004 | 26240 ft | 477 kts | 192° |
| 2026-04-26 04:18 | 59.28627 | 24.45957 | 26639 ft | 477 kts | 192° |
| 2026-04-26 04:18 | 59.25354 | 24.44921 | 27030 ft | 476 kts | 192° |
| 2026-04-26 04:18 | 59.22082 | 24.43893 | 27422 ft | 476 kts | 192° |
| 2026-04-26 04:18 | 59.18812 | 24.42868 | 27806 ft | 476 kts | 192° |
| 2026-04-26 04:19 | 59.15548 | 24.41838 | 28198 ft | 475 kts | 192° |
| 2026-04-26 04:19 | 59.12284 | 24.40806 | 28579 ft | 475 kts | 192° |
| 2026-04-26 04:19 | 59.09018 | 24.39775 | 28937 ft | 475 kts | 192° |
| 2026-04-26 04:19 | 59.05752 | 24.38746 | 29291 ft | 475 kts | 192° |
| 2026-04-26 04:20 | 59.02493 | 24.37724 | 29662 ft | 475 kts | 192° |
| 2026-04-26 04:20 | 58.99230 | 24.36707 | 29949 ft | 475 kts | 192° |
| 2026-04-26 04:20 | 58.95964 | 24.35693 | 30223 ft | 475 kts | 192° |
| 2026-04-26 04:20 | 58.92698 | 24.34679 | 30507 ft | 475 kts | 192° |
| 2026-04-26 04:21 | 58.89438 | 24.33669 | 30789 ft | 474 kts | 192° |
| 2026-04-26 04:21 | 58.86181 | 24.32657 | 31059 ft | 474 kts | 192° |
| 2026-04-26 04:21 | 58.82922 | 24.31613 | 31328 ft | 474 kts | 193° |
| 2026-04-26 04:21 | 58.79686 | 24.30446 | 31586 ft | 473 kts | 194° |
| 2026-04-26 04:22 | 58.76502 | 24.29199 | 31858 ft | 473 kts | 195° |
| 2026-04-26 04:22 | 58.73282 | 24.27886 | 32113 ft | 473 kts | 195° |
| 2026-04-26 04:22 | 58.70067 | 24.26567 | 32365 ft | 473 kts | 195° |
| 2026-04-26 04:22 | 58.66845 | 24.25273 | 32609 ft | 473 kts | 195° |
| 2026-04-26 04:23 | 58.63621 | 24.24017 | 32857 ft | 473 kts | 194° |
| 2026-04-26 04:23 | 58.61443 | 24.23186 | 33021 ft | 473 kts | 194° |
| 2026-04-26 04:23 | 58.57169 | 24.21582 | 33334 ft | 473 kts | 194° |
| 2026-04-26 04:23 | 58.53938 | 24.20374 | 33557 ft | 473 kts | 194° |
| 2026-04-26 04:24 | 58.50701 | 24.19158 | 33625 ft | 475 kts | 194° |
| 2026-04-26 04:24 | 58.45259 | 24.17106 | 33630 ft | 477 kts | 194° |
| 2026-04-26 04:25 | 58.38750 | 24.14651 | 33655 ft | 477 kts | 194° |
| 2026-04-26 04:25 | 58.32242 | 24.12194 | 33655 ft | 477 kts | 194° |
| 2026-04-26 04:26 | 58.25722 | 24.09747 | 33667 ft | 477 kts | 194° |
| 2026-04-26 04:26 | 58.19255 | 24.07342 | 33678 ft | 477 kts | 194° |
| 2026-04-26 04:27 | 58.12739 | 24.04929 | 33685 ft | 477 kts | 195° |
| 2026-04-26 04:27 | 58.06215 | 24.02516 | 33691 ft | 477 kts | 195° |
| 2026-04-26 04:28 | 57.99697 | 24.00111 | 33696 ft | 477 kts | 195° |
| 2026-04-26 04:28 | 57.93183 | 23.97721 | 33700 ft | 477 kts | 194° |
| 2026-04-26 04:29 | 57.86666 | 23.95341 | 33699 ft | 477 kts | 195° |
| 2026-04-26 04:29 | 57.80152 | 23.92957 | 33703 ft | 477 kts | 195° |
| 2026-04-26 04:30 | 57.73629 | 23.90576 | 33704 ft | 477 kts | 195° |
| 2026-04-26 04:30 | 57.67116 | 23.88213 | 33711 ft | 477 kts | 195° |
| 2026-04-26 04:31 | 57.60595 | 23.85875 | 33713 ft | 477 kts | 195° |
| 2026-04-26 04:31 | 57.54082 | 23.83537 | 33720 ft | 477 kts | 195° |
| 2026-04-26 04:32 | 57.47564 | 23.81201 | 33714 ft | 477 kts | 195° |
| 2026-04-26 04:32 | 57.41038 | 23.78874 | 33713 ft | 477 kts | 195° |
| 2026-04-26 04:33 | 57.34518 | 23.76558 | 33714 ft | 477 kts | 195° |
| 2026-04-26 04:33 | 57.28007 | 23.74246 | 33715 ft | 476 kts | 195° |
| 2026-04-26 04:34 | 57.21495 | 23.71944 | 33714 ft | 476 kts | 195° |
| 2026-04-26 04:34 | 57.14988 | 23.69666 | 33712 ft | 476 kts | 195° |
| 2026-04-26 04:35 | 57.08476 | 23.67396 | 33717 ft | 476 kts | 195° |
| 2026-04-26 04:35 | 57.01963 | 23.65117 | 33717 ft | 476 kts | 195° |
| 2026-04-26 04:36 | 56.95457 | 23.62841 | 33713 ft | 476 kts | 195° |
| 2026-04-26 04:36 | 56.88949 | 23.60572 | 33717 ft | 476 kts | 195° |
| 2026-04-26 04:37 | 56.82432 | 23.58326 | 33719 ft | 476 kts | 195° |
| 2026-04-26 04:37 | 56.75919 | 23.56089 | 33723 ft | 476 kts | 195° |
| 2026-04-26 04:38 | 56.69403 | 23.53860 | 33731 ft | 476 kts | 195° |
| 2026-04-26 04:38 | 56.62894 | 23.51640 | 33740 ft | 476 kts | 195° |
| 2026-04-26 04:39 | 56.56377 | 23.49415 | 33735 ft | 476 kts | 195° |
| 2026-04-26 04:39 | 56.49866 | 23.47209 | 33742 ft | 476 kts | 195° |
| 2026-04-26 04:40 | 56.43350 | 23.45010 | 33740 ft | 476 kts | 195° |
| 2026-04-26 04:40 | 56.36828 | 23.42825 | 33745 ft | 476 kts | 196° |
| 2026-04-26 04:41 | 56.30354 | 23.40624 | 33753 ft | 476 kts | 196° |
| 2026-04-26 04:41 | 56.23847 | 23.38373 | 33757 ft | 476 kts | 196° |
| 2026-04-26 04:42 | 56.17338 | 23.36133 | 33754 ft | 476 kts | 196° |
| 2026-04-26 04:42 | 56.10823 | 23.33931 | 33757 ft | 476 kts | 196° |
| 2026-04-26 04:43 | 56.04315 | 23.31738 | 33753 ft | 476 kts | 196° |
| 2026-04-26 04:43 | 55.97809 | 23.29545 | 33762 ft | 476 kts | 196° |
| 2026-04-26 04:44 | 55.91298 | 23.27349 | 33755 ft | 476 kts | 197° |
| 2026-04-26 04:44 | 55.84786 | 23.25165 | 33761 ft | 476 kts | 196° |
| 2026-04-26 04:45 | 55.78268 | 23.22996 | 33760 ft | 476 kts | 197° |
| 2026-04-26 04:45 | 55.71751 | 23.20818 | 33768 ft | 477 kts | 197° |
| 2026-04-26 04:46 | 55.65233 | 23.18651 | 33760 ft | 477 kts | 197° |
| 2026-04-26 04:46 | 55.58708 | 23.16499 | 33768 ft | 477 kts | 197° |
| 2026-04-26 04:47 | 55.52105 | 23.14915 | 33771 ft | 482 kts | 191° |
| 2026-04-26 04:47 | 55.45425 | 23.13914 | 33777 ft | 482 kts | 191° |
| 2026-04-26 04:48 | 55.35401 | 23.12442 | 33775 ft | 482 kts | 191° |
| 2026-04-26 04:48 | 55.28720 | 23.11449 | 33768 ft | 482 kts | 191° |
| 2026-04-26 04:49 | 55.22036 | 23.10447 | 33779 ft | 482 kts | 191° |
| 2026-04-26 04:49 | 55.15348 | 23.09451 | 33778 ft | 482 kts | 191° |
| 2026-04-26 04:50 | 55.08655 | 23.08478 | 33788 ft | 483 kts | 191° |
| 2026-04-26 04:50 | 55.01960 | 23.07530 | 33776 ft | 484 kts | 190° |
| 2026-04-26 04:51 | 54.95205 | 23.07102 | 33787 ft | 487 kts | 187° |
| 2026-04-26 04:51 | 54.88417 | 23.07122 | 33791 ft | 488 kts | 186° |
| 2026-04-26 04:52 | 54.81623 | 23.07126 | 33790 ft | 488 kts | 187° |
| 2026-04-26 04:52 | 54.74835 | 23.06977 | 33784 ft | 488 kts | 187° |
| 2026-04-26 04:53 | 54.68043 | 23.06778 | 33792 ft | 488 kts | 187° |
| 2026-04-26 04:53 | 54.61250 | 23.06599 | 33787 ft | 489 kts | 187° |
| 2026-04-26 04:54 | 54.54484 | 23.06452 | 33795 ft | 489 kts | 187° |
| 2026-04-26 04:54 | 54.47678 | 23.06305 | 33778 ft | 489 kts | 187° |
| 2026-04-26 04:55 | 54.40870 | 23.06144 | 33790 ft | 489 kts | 187° |
| 2026-04-26 04:55 | 54.34103 | 23.05538 | 33771 ft | 480 kts | 198° |
| 2026-04-26 04:56 | 54.27905 | 23.02095 | 33788 ft | 460 kts | 216° |
| 2026-04-26 04:56 | 54.22618 | 22.96263 | 33784 ft | 450 kts | 223° |
| 2026-04-26 04:57 | 54.17455 | 22.90156 | 33795 ft | 451 kts | 223° |
| 2026-04-26 04:57 | 54.12279 | 22.84092 | 33802 ft | 451 kts | 223° |
| 2026-04-26 04:58 | 54.07095 | 22.78047 | 33813 ft | 451 kts | 223° |
| 2026-04-26 04:58 | 54.01913 | 22.72010 | 33813 ft | 451 kts | 223° |
| 2026-04-26 04:59 | 53.96741 | 22.65972 | 33835 ft | 451 kts | 223° |
| 2026-04-26 04:59 | 53.91571 | 22.59947 | 33824 ft | 451 kts | 223° |
| 2026-04-26 05:00 | 53.86425 | 22.53988 | 33834 ft | 451 kts | 223° |
| 2026-04-26 05:00 | 53.81229 | 22.48010 | 33836 ft | 451 kts | 223° |
| 2026-04-26 05:01 | 53.76042 | 22.42057 | 33865 ft | 450 kts | 223° |
| 2026-04-26 05:01 | 53.70868 | 22.36107 | 33880 ft | 450 kts | 223° |
| 2026-04-26 05:02 | 53.65679 | 22.30160 | 33872 ft | 451 kts | 223° |
| 2026-04-26 05:02 | 53.60480 | 22.24238 | 33887 ft | 451 kts | 222° |
| 2026-04-26 05:03 | 53.55266 | 22.18319 | 33879 ft | 452 kts | 222° |
| 2026-04-26 05:03 | 53.50052 | 22.12409 | 33891 ft | 452 kts | 222° |
| 2026-04-26 05:04 | 53.44823 | 22.06506 | 33891 ft | 453 kts | 222° |
| 2026-04-26 05:04 | 53.40471 | 22.01614 | 33906 ft | 453 kts | 222° |
| 2026-04-26 05:05 | 53.34389 | 21.94776 | 33900 ft | 453 kts | 222° |
| 2026-04-26 05:05 | 53.30001 | 21.89858 | 33916 ft | 453 kts | 222° |
| 2026-04-26 05:06 | 53.24762 | 21.84007 | 33908 ft | 453 kts | 222° |
| 2026-04-26 05:06 | 53.19511 | 21.78153 | 33919 ft | 454 kts | 221° |
| 2026-04-26 05:07 | 53.14297 | 21.72349 | 33917 ft | 453 kts | 222° |
| 2026-04-26 05:07 | 53.09199 | 21.66234 | 33924 ft | 451 kts | 225° |
| 2026-04-26 05:08 | 53.04191 | 21.59944 | 33927 ft | 451 kts | 225° |
| 2026-04-26 05:08 | 52.99168 | 21.53710 | 33941 ft | 452 kts | 224° |
| 2026-04-26 05:09 | 52.94063 | 21.47533 | 33938 ft | 453 kts | 223° |
| 2026-04-26 05:09 | 52.88956 | 21.41401 | 33945 ft | 453 kts | 224° |
| 2026-04-26 05:10 | 52.83853 | 21.35257 | 33950 ft | 454 kts | 224° |
| 2026-04-26 05:10 | 52.78745 | 21.29117 | 33960 ft | 454 kts | 223° |
| 2026-04-26 05:11 | 52.73636 | 21.22980 | 33953 ft | 454 kts | 223° |
| 2026-04-26 05:11 | 52.68513 | 21.16860 | 33973 ft | 455 kts | 223° |
| 2026-04-26 05:12 | 52.63384 | 21.10760 | 33968 ft | 455 kts | 223° |
| 2026-04-26 05:12 | 52.58283 | 21.04707 | 33999 ft | 455 kts | 223° |
| 2026-04-26 05:13 | 52.53142 | 20.98624 | 33998 ft | 456 kts | 223° |
| 2026-04-26 05:13 | 52.47962 | 20.92502 | 34010 ft | 456 kts | 223° |
| 2026-04-26 05:14 | 52.42847 | 20.86464 | 34001 ft | 456 kts | 223° |
| 2026-04-26 05:14 | 52.37693 | 20.80405 | 34010 ft | 456 kts | 223° |
| 2026-04-26 05:15 | 52.32521 | 20.74357 | 34007 ft | 457 kts | 223° |
| 2026-04-26 05:15 | 52.27342 | 20.68325 | 34013 ft | 457 kts | 223° |
| 2026-04-26 05:16 | 52.22156 | 20.62301 | 34009 ft | 458 kts | 223° |
| 2026-04-26 05:16 | 52.16965 | 20.56286 | 34020 ft | 458 kts | 223° |
| 2026-04-26 05:17 | 52.11800 | 20.50310 | 34018 ft | 458 kts | 223° |
| 2026-04-26 05:17 | 52.06605 | 20.44311 | 34036 ft | 458 kts | 223° |
| 2026-04-26 05:18 | 52.01400 | 20.38329 | 34038 ft | 458 kts | 223° |
| 2026-04-26 05:18 | 51.96199 | 20.32369 | 34394 ft | 460 kts | 229° |
| 2026-04-26 05:19 | 51.93550 | 20.29316 | 34205 ft | 471 kts | 227° |
| 2026-04-26 05:19 | 51.90849 | 20.26199 | 34034 ft | 480 kts | 227° |
| 2026-04-26 05:19 | 51.85352 | 20.19939 | 34026 ft | 485 kts | 227° |
| 2026-04-26 05:20 | 51.79809 | 20.13682 | 34036 ft | 485 kts | 227° |
| 2026-04-26 05:20 | 51.74270 | 20.07435 | 34039 ft | 484 kts | 227° |
| 2026-04-26 05:21 | 51.68755 | 20.01199 | 34033 ft | 484 kts | 227° |
| 2026-04-26 05:21 | 51.63234 | 19.94970 | 34042 ft | 485 kts | 227° |
| 2026-04-26 05:22 | 51.57701 | 19.88764 | 34050 ft | 485 kts | 227° |
| 2026-04-26 05:22 | 51.52172 | 19.82574 | 34054 ft | 484 kts | 227° |
| 2026-04-26 05:23 | 51.46648 | 19.76388 | 34058 ft | 484 kts | 227° |
| 2026-04-26 05:23 | 51.41119 | 19.70238 | 34066 ft | 484 kts | 227° |
| 2026-04-26 05:24 | 51.35587 | 19.64125 | 34064 ft | 483 kts | 227° |
| 2026-04-26 05:24 | 51.30061 | 19.58030 | 34067 ft | 482 kts | 227° |
| 2026-04-26 05:25 | 51.24548 | 19.51943 | 34078 ft | 481 kts | 227° |
| 2026-04-26 05:25 | 51.19047 | 19.45884 | 34074 ft | 481 kts | 227° |
| 2026-04-26 05:26 | 51.13534 | 19.39851 | 34073 ft | 480 kts | 227° |
| 2026-04-26 05:26 | 51.08033 | 19.33840 | 34076 ft | 479 kts | 227° |
| 2026-04-26 05:27 | 51.02572 | 19.27882 | 34074 ft | 479 kts | 226° |
| 2026-04-26 05:27 | 50.97074 | 19.21914 | 34085 ft | 478 kts | 226° |
| 2026-04-26 05:28 | 50.91590 | 19.15985 | 33963 ft | 469 kts | 224° |
| 2026-04-26 05:28 | 50.88918 | 19.13118 | 34094 ft | 462 kts | 223° |
| 2026-04-26 05:28 | 50.86270 | 19.10272 | 34090 ft | 459 kts | 224° |
| 2026-04-26 05:29 | 50.81005 | 19.04571 | 34091 ft | 458 kts | 224° |
| 2026-04-26 05:29 | 50.75741 | 18.98889 | 34090 ft | 458 kts | 224° |
| 2026-04-26 05:30 | 50.70462 | 18.93230 | 34084 ft | 459 kts | 223° |
| 2026-04-26 05:30 | 50.65172 | 18.87585 | 34096 ft | 459 kts | 223° |
| 2026-04-26 05:31 | 50.59873 | 18.81955 | 34083 ft | 460 kts | 223° |
| 2026-04-26 05:31 | 50.54571 | 18.76320 | 34090 ft | 460 kts | 223° |
| 2026-04-26 05:32 | 50.49259 | 18.70695 | 34284 ft | 460 kts | 223° |
| 2026-04-26 05:32 | 50.46603 | 18.67894 | 34557 ft | 459 kts | 223° |
| 2026-04-26 05:32 | 50.43951 | 18.65100 | 34829 ft | 458 kts | 223° |
| 2026-04-26 05:33 | 50.41310 | 18.62315 | 35065 ft | 458 kts | 223° |
| 2026-04-26 05:33 | 50.38668 | 18.59531 | 35317 ft | 457 kts | 223° |
| 2026-04-26 05:33 | 50.36031 | 18.56759 | 35562 ft | 456 kts | 222° |
| 2026-04-26 05:33 | 50.33393 | 18.53989 | 35806 ft | 456 kts | 222° |
| 2026-04-26 05:34 | 50.30761 | 18.51225 | 36035 ft | 456 kts | 222° |
| 2026-04-26 05:34 | 50.28162 | 18.48495 | 36105 ft | 456 kts | 222° |
| 2026-04-26 05:34 | 50.22857 | 18.42957 | 36129 ft | 455 kts | 222° |
| 2026-04-26 05:35 | 50.17588 | 18.37469 | 36122 ft | 455 kts | 221° |
| 2026-04-26 05:35 | 50.12321 | 18.31984 | 36129 ft | 455 kts | 221° |
| 2026-04-26 05:36 | 50.07085 | 18.26550 | 36132 ft | 455 kts | 221° |
| 2026-04-26 05:36 | 50.01809 | 18.21098 | 36137 ft | 455 kts | 221° |
| 2026-04-26 05:37 | 49.96582 | 18.15549 | 36145 ft | 454 kts | 223° |
| 2026-04-26 05:37 | 49.91518 | 18.09721 | 36156 ft | 452 kts | 225° |
| 2026-04-26 05:38 | 49.86456 | 18.03810 | 36145 ft | 457 kts | 225° |
| 2026-04-26 05:38 | 49.81319 | 17.97960 | 36138 ft | 460 kts | 224° |
| 2026-04-26 05:39 | 49.76128 | 17.92145 | 36135 ft | 461 kts | 224° |
| 2026-04-26 05:39 | 49.70925 | 17.86326 | 36143 ft | 462 kts | 224° |
| 2026-04-26 05:40 | 49.65726 | 17.80495 | 36158 ft | 462 kts | 224° |
| 2026-04-26 05:40 | 49.60530 | 17.74667 | 36159 ft | 462 kts | 223° |
| 2026-04-26 05:41 | 49.55318 | 17.68854 | 36156 ft | 462 kts | 223° |
| 2026-04-26 05:41 | 49.50107 | 17.63074 | 36150 ft | 462 kts | 223° |
| 2026-04-26 05:42 | 49.44894 | 17.57298 | 36146 ft | 462 kts | 223° |
| 2026-04-26 05:42 | 49.39690 | 17.51520 | 36143 ft | 461 kts | 223° |
| 2026-04-26 05:43 | 49.34492 | 17.45778 | 36145 ft | 461 kts | 223° |
| 2026-04-26 05:43 | 49.29288 | 17.40043 | 36146 ft | 460 kts | 223° |
| 2026-04-26 05:44 | 49.24090 | 17.34342 | 36144 ft | 459 kts | 222° |
| 2026-04-26 05:44 | 49.18899 | 17.28661 | 36142 ft | 459 kts | 222° |
| 2026-04-26 05:45 | 49.13702 | 17.22989 | 36140 ft | 459 kts | 222° |
| 2026-04-26 05:45 | 49.08504 | 17.17339 | 36137 ft | 458 kts | 222° |
| 2026-04-26 05:46 | 49.03317 | 17.11699 | 36142 ft | 458 kts | 222° |
| 2026-04-26 05:46 | 48.98124 | 17.06061 | 36137 ft | 458 kts | 221° |
| 2026-04-26 05:47 | 48.92932 | 17.00440 | 36147 ft | 458 kts | 221° |
| 2026-04-26 05:47 | 48.88608 | 16.95781 | 36141 ft | 458 kts | 221° |
| 2026-04-26 05:48 | 48.83403 | 16.90187 | 36135 ft | 458 kts | 221° |
| 2026-04-26 05:48 | 48.78204 | 16.84603 | 36129 ft | 458 kts | 220° |
| 2026-04-26 05:49 | 48.70139 | 16.76732 | 36135 ft | 464 kts | 212° |
| 2026-04-26 05:50 | 48.64418 | 16.72230 | 36136 ft | 464 kts | 212° |
| 2026-04-26 05:50 | 48.58696 | 16.67740 | 36139 ft | 463 kts | 212° |
| 2026-04-26 05:51 | 48.52967 | 16.63252 | 36147 ft | 463 kts | 212° |
| 2026-04-26 05:51 | 48.47252 | 16.58778 | 36148 ft | 462 kts | 211° |
| 2026-04-26 05:52 | 48.41549 | 16.54320 | 36154 ft | 461 kts | 211° |
| 2026-04-26 05:52 | 48.35859 | 16.49867 | 36156 ft | 461 kts | 211° |
| 2026-04-26 05:53 | 48.30170 | 16.45446 | 36157 ft | 460 kts | 211° |
| 2026-04-26 05:53 | 48.24475 | 16.41053 | 36153 ft | 460 kts | 211° |
| 2026-04-26 05:54 | 48.18826 | 16.36696 | 36149 ft | 460 kts | 211° |
| 2026-04-26 05:54 | 48.13137 | 16.32304 | 36147 ft | 460 kts | 211° |
| 2026-04-26 05:55 | 48.07439 | 16.27921 | 36141 ft | 461 kts | 211° |
| 2026-04-26 05:55 | 48.01737 | 16.23537 | 36129 ft | 461 kts | 211° |
| 2026-04-26 05:56 | 47.96010 | 16.19155 | 36121 ft | 463 kts | 211° |
| 2026-04-26 05:56 | 47.90268 | 16.14772 | 36108 ft | 464 kts | 211° |
| 2026-04-26 05:57 | 47.84502 | 16.10384 | 36100 ft | 466 kts | 211° |
| 2026-04-26 05:57 | 47.78730 | 16.05993 | 36100 ft | 466 kts | 211° |
| 2026-04-26 05:58 | 47.72947 | 16.01610 | 36096 ft | 467 kts | 210° |
| 2026-04-26 05:58 | 47.67147 | 15.97236 | 36095 ft | 468 kts | 210° |
| 2026-04-26 05:59 | 47.61341 | 15.92860 | 36115 ft | 468 kts | 210° |
| 2026-04-26 05:59 | 47.55542 | 15.88497 | 36101 ft | 467 kts | 210° |
| 2026-04-26 06:00 | 47.49745 | 15.84155 | 36104 ft | 467 kts | 210° |
| 2026-04-26 06:00 | 47.43952 | 15.79828 | 36104 ft | 466 kts | 210° |
| 2026-04-26 06:01 | 47.38182 | 15.75513 | 36094 ft | 463 kts | 210° |
| 2026-04-26 06:01 | 47.35313 | 15.73369 | 35660 ft | 461 kts | 210° |
| 2026-04-26 06:01 | 47.32461 | 15.71238 | 34990 ft | 460 kts | 209° |
| 2026-04-26 06:01 | 47.29609 | 15.69109 | 34297 ft | 460 kts | 209° |
| 2026-04-26 06:02 | 47.26750 | 15.66986 | 33503 ft | 461 kts | 209° |
| 2026-04-26 06:02 | 47.23913 | 15.64886 | 32613 ft | 463 kts | 209° |
| 2026-04-26 06:02 | 47.21014 | 15.62746 | 31647 ft | 468 kts | 209° |
| 2026-04-26 06:02 | 47.18091 | 15.60589 | 30673 ft | 473 kts | 209° |
| 2026-04-26 06:03 | 47.15134 | 15.58404 | 29589 ft | 479 kts | 209° |
| 2026-04-26 06:03 | 47.12145 | 15.56198 | 28466 ft | 483 kts | 209° |
| 2026-04-26 06:03 | 47.09147 | 15.53989 | 27675 ft | 480 kts | 209° |
| 2026-04-26 06:03 | 47.06178 | 15.51805 | 26972 ft | 474 kts | 209° |
| 2026-04-26 06:04 | 47.03241 | 15.49651 | 26250 ft | 469 kts | 209° |
| 2026-04-26 06:04 | 47.00336 | 15.47525 | 25555 ft | 464 kts | 209° |
| 2026-04-26 06:04 | 46.97466 | 15.45424 | 24868 ft | 460 kts | 209° |
| 2026-04-26 06:04 | 46.94616 | 15.43340 | 24194 ft | 455 kts | 209° |
| 2026-04-26 06:05 | 46.91796 | 15.41280 | 23501 ft | 451 kts | 209° |
| 2026-04-26 06:05 | 46.89003 | 15.39240 | 22737 ft | 446 kts | 209° |
| 2026-04-26 06:05 | 46.86246 | 15.37227 | 22007 ft | 441 kts | 209° |
| 2026-04-26 06:05 | 46.83518 | 15.35233 | 21299 ft | 436 kts | 209° |
| 2026-04-26 06:06 | 46.80829 | 15.33274 | 20639 ft | 431 kts | 209° |
| 2026-04-26 06:06 | 46.78153 | 15.31329 | 19973 ft | 427 kts | 208° |
| 2026-04-26 06:06 | 46.75511 | 15.29388 | 19347 ft | 422 kts | 210° |
| 2026-04-26 06:06 | 46.72922 | 15.27413 | 18753 ft | 418 kts | 210° |
| 2026-04-26 06:07 | 46.70370 | 15.25413 | 18149 ft | 414 kts | 211° |
| 2026-04-26 06:07 | 46.67851 | 15.23422 | 17521 ft | 410 kts | 211° |
| 2026-04-26 06:07 | 46.65355 | 15.21455 | 16906 ft | 405 kts | 210° |
| 2026-04-26 06:07 | 46.62802 | 15.19751 | 16339 ft | 403 kts | 205° |
| 2026-04-26 06:08 | 46.60227 | 15.18176 | 15836 ft | 399 kts | 205° |
| 2026-04-26 06:08 | 46.57673 | 15.16633 | 15342 ft | 396 kts | 205° |
| 2026-04-26 06:08 | 46.55143 | 15.15107 | 14850 ft | 392 kts | 205° |
| 2026-04-26 06:08 | 46.52637 | 15.13588 | 14335 ft | 388 kts | 205° |
| 2026-04-26 06:09 | 46.50157 | 15.12079 | 13829 ft | 385 kts | 205° |
| 2026-04-26 06:09 | 46.47697 | 15.10581 | 13274 ft | 381 kts | 205° |
| 2026-04-26 06:09 | 46.45264 | 15.09095 | 12725 ft | 378 kts | 205° |
| 2026-04-26 06:09 | 46.42855 | 15.07627 | 12192 ft | 374 kts | 205° |
| 2026-04-26 06:10 | 46.40466 | 15.06177 | 11670 ft | 370 kts | 205° |
| 2026-04-26 06:10 | 46.38108 | 15.04754 | 11290 ft | 362 kts | 205° |
| 2026-04-26 06:10 | 46.35827 | 15.03382 | 11163 ft | 348 kts | 205° |
| 2026-04-26 06:10 | 46.33633 | 15.02062 | 11033 ft | 335 kts | 205° |
| 2026-04-26 06:11 | 46.31533 | 15.00750 | 10906 ft | 322 kts | 210° |
| 2026-04-26 06:11 | 46.29691 | 14.99060 | 10783 ft | 308 kts | 218° |
| 2026-04-26 06:11 | 46.27968 | 14.97301 | 10650 ft | 297 kts | 218° |
| 2026-04-26 06:11 | 46.26295 | 14.95607 | 10457 ft | 290 kts | 217° |
| 2026-04-26 06:12 | 46.24648 | 14.93943 | 10154 ft | 288 kts | 217° |
| 2026-04-26 06:12 | 46.23012 | 14.92291 | 9799 ft | 286 kts | 217° |
| 2026-04-26 06:12 | 46.21391 | 14.90653 | 9448 ft | 285 kts | 217° |
| 2026-04-26 06:12 | 46.19995 | 14.89252 | 9102 ft | 285 kts | 217° |
| 2026-04-26 06:13 | 46.18373 | 14.87620 | 8725 ft | 284 kts | 217° |
| 2026-04-26 06:13 | 46.16761 | 14.85990 | 8336 ft | 283 kts | 217° |
| 2026-04-26 06:13 | 46.15146 | 14.84354 | 7919 ft | 283 kts | 217° |
| 2026-04-26 06:13 | 46.13537 | 14.82727 | 7524 ft | 283 kts | 217° |
| 2026-04-26 06:14 | 46.11933 | 14.81109 | 7223 ft | 278 kts | 216° |
| 2026-04-26 06:14 | 46.10389 | 14.79556 | 7091 ft | 263 kts | 217° |
| 2026-04-26 06:14 | 46.09134 | 14.77792 | 6894 ft | 247 kts | 239° |
| 2026-04-26 06:14 | 46.08525 | 14.75534 | 6448 ft | 241 kts | 264° |
| 2026-04-26 06:15 | 46.08630 | 14.73190 | 6168 ft | 231 kts | 288° |
| 2026-04-26 06:15 | 46.09329 | 14.71155 | 5837 ft | 225 kts | 308° |
| 2026-04-26 06:15 | 46.10268 | 14.69343 | 5382 ft | 225 kts | 308° |
| 2026-04-26 06:15 | 46.11199 | 14.67534 | 4939 ft | 224 kts | 308° |
| 2026-04-26 06:16 | 46.12123 | 14.65732 | 4509 ft | 223 kts | 308° |
| 2026-04-26 06:16 | 46.13045 | 14.63925 | 4020 ft | 223 kts | 308° |
| 2026-04-26 06:16 | 46.13960 | 14.62141 | 3692 ft | 224 kts | 308° |
| 2026-04-26 06:16 | 46.14882 | 14.60348 | 3409 ft | 223 kts | 308° |
| 2026-04-26 06:17 | 46.15792 | 14.58579 | 3123 ft | 212 kts | 308° |
| 2026-04-26 06:17 | 46.16640 | 14.56929 | 2815 ft | 197 kts | 307° |
| 2026-04-26 06:17 | 46.17423 | 14.55405 | 2570 ft | 182 kts | 307° |
| 2026-04-26 06:17 | 46.18147 | 14.53996 | 2339 ft | 169 kts | 307° |
| 2026-04-26 06:18 | 46.18818 | 14.52689 | 2125 ft | 158 kts | 306° |
| 2026-04-26 06:18 | 46.19466 | 14.51428 | 1866 ft | 155 kts | 306° |
| 2026-04-26 06:18 | 46.20097 | 14.50197 | 1693 ft | 153 kts | 306° |
| 2026-04-26 06:18 | 46.20731 | 14.48951 | 1482 ft | 153 kts | 306° |
| 2026-04-26 06:19 | 46.21369 | 14.47712 | 1297 ft | 154 kts | 306° |
| 2026-04-26 06:19 | 46.21986 | 14.46508 | 1230 ft | 135 kts | 307° |
| 2026-04-26 06:19 | 46.22378 | 14.45741 | 1253 ft | 51 kts | 306° |
| 2026-04-26 06:19 | 46.22520 | 14.45498 | 1258 ft | 27 kts | 318° |
| 2026-04-26 06:20 | 46.22656 | 14.45372 | 1257 ft | 18 kts | 337° |
| 2026-04-26 06:20 | 46.22734 | 14.45337 | 1263 ft | 8 kts | 346° |
| 2026-04-26 06:20 | 46.22782 | 14.45324 | 1262 ft | 7 kts | 351° |
| 2026-04-26 06:20 | 46.22829 | 14.45316 | 1262 ft | 7 kts | 359° |
| 2026-04-26 06:21 | 46.22873 | 14.45346 | 1261 ft | 7 kts | 37° |
| 2026-04-26 06:21 | 46.22916 | 14.45395 | 1258 ft | 8 kts | 38° |
| 2026-04-26 06:21 | 46.22947 | 14.45407 | 1262 ft | 4 kts | 340° |
| 2026-04-26 06:21 | 46.22966 | 14.45382 | 1269 ft | 3 kts | 323° |
| 2026-04-26 06:22 | 46.22986 | 14.45384 | 1262 ft | 4 kts | 11° |
| 2026-04-26 06:22 | 46.23011 | 14.45403 | 1262 ft | 3 kts | 36° |
| 2026-04-26 06:22 | 46.23021 | 14.45414 | 1264 ft | 1 kts | 35° |
| 2026-04-26 06:22 | 46.23024 | 14.45417 | 1264 ft | 0 kts | 35° |